createdAt,value
2023-03-29T00:00:18.356Z,-0.06
2023-03-29T00:02:45.011Z,-0.07
2023-03-29T00:05:11.371Z,-0.07
2023-03-29T00:07:37.645Z,-0.19
2023-03-29T00:10:04.689Z,-0.18
2023-03-29T00:12:32.082Z,-0.22
2023-03-29T00:14:58.392Z,-0.24
2023-03-29T00:17:24.824Z,-0.29
2023-03-29T00:19:51.147Z,-0.28
2023-03-29T00:22:17.505Z,-0.28
2023-03-29T00:24:43.819Z,-0.29
2023-03-29T00:27:10.225Z,-0.31
2023-03-29T00:29:36.724Z,-0.33
2023-03-29T00:32:03.095Z,-0.30
2023-03-29T00:34:29.424Z,-0.31
2023-03-29T00:36:55.882Z,-0.34
2023-03-29T00:39:22.291Z,-0.33
2023-03-29T00:41:50.126Z,-0.37
2023-03-29T00:44:54.120Z,-0.33
2023-03-29T00:47:24.250Z,-0.33
2023-03-29T00:49:52.673Z,-0.35
2023-03-29T00:52:21.015Z,-0.38
2023-03-29T00:54:50.651Z,-0.38
2023-03-29T00:57:20.273Z,-0.35
2023-03-29T00:59:48.366Z,-0.34
2023-03-29T01:02:21.500Z,-0.32
2023-03-29T01:04:55.971Z,-0.38
2023-03-29T01:07:27.649Z,-0.33
2023-03-29T01:10:15.598Z,-0.33
2023-03-29T01:12:48.516Z,-0.30
2023-03-29T01:15:19.416Z,-0.29
2023-03-29T01:17:45.855Z,-0.28
2023-03-29T01:20:45.294Z,-0.30
2023-03-29T01:23:50.446Z,-0.28
2023-03-29T01:26:25.099Z,-0.26
2023-03-29T01:29:05.283Z,-0.27
2023-03-29T01:31:36.958Z,-0.26
2023-03-29T01:34:31.524Z,-0.29
2023-03-29T01:37:07.378Z,-0.24
2023-03-29T01:39:33.757Z,-0.24
2023-03-29T01:42:18.498Z,-0.21
2023-03-29T01:45:10.687Z,-0.22
2023-03-29T01:47:46.541Z,-0.20
2023-03-29T01:50:18.499Z,-0.25
2023-03-29T01:52:58.784Z,-0.20
2023-03-29T01:55:31.621Z,-0.19
2023-03-29T01:58:00.167Z,-0.21
2023-03-29T02:00:28.596Z,-0.19
2023-03-29T02:03:00.630Z,-0.21
2023-03-29T02:05:29.940Z,-0.15
2023-03-29T02:07:57.940Z,-0.22
2023-03-29T02:10:24.343Z,-0.23
2023-03-29T02:12:50.661Z,-0.20
2023-03-29T02:15:19.953Z,-0.22
2023-03-29T02:17:48.100Z,-0.19
2023-03-29T02:20:27.872Z,-0.20
2023-03-29T02:23:00.840Z,-0.21
2023-03-29T02:25:27.282Z,-0.19
2023-03-29T02:27:54.072Z,-0.19
2023-03-29T02:30:21.029Z,-0.17
2023-03-29T02:32:53.694Z,-0.22
2023-03-29T02:35:27.053Z,-0.23
2023-03-29T02:37:55.733Z,-0.24
2023-03-29T02:40:24.528Z,-0.25
2023-03-29T02:42:51.127Z,-0.25
2023-03-29T02:45:18.675Z,-0.24
2023-03-29T02:47:48.255Z,-0.23
2023-03-29T02:50:14.730Z,-0.23
2023-03-29T02:52:47.176Z,-0.22
2023-03-29T02:55:18.106Z,-0.22
2023-03-29T02:57:44.414Z,-0.18
2023-03-29T03:00:12.033Z,-0.17
2023-03-29T03:02:38.439Z,-0.19
2023-03-29T03:05:05.406Z,-0.23
2023-03-29T03:07:32.252Z,-0.25
2023-03-29T03:09:58.570Z,-0.27
2023-03-29T03:12:25.026Z,-0.24
2023-03-29T03:14:51.333Z,-0.23
2023-03-29T03:17:17.633Z,-0.26
2023-03-29T03:19:44.130Z,-0.29
2023-03-29T03:22:10.443Z,-0.27
2023-03-29T03:24:36.776Z,-0.36
2023-03-29T03:27:03.224Z,-0.37
2023-03-29T03:29:29.506Z,-0.35
2023-03-29T03:31:55.870Z,-0.38
2023-03-29T03:34:22.609Z,-0.40
2023-03-29T03:36:48.916Z,-0.42
2023-03-29T03:39:15.214Z,-0.44
2023-03-29T03:41:41.489Z,-0.52
2023-03-29T03:44:07.805Z,-0.52
2023-03-29T03:46:34.170Z,-0.49
2023-03-29T03:49:00.470Z,-0.54
2023-03-29T03:51:26.767Z,-0.63
2023-03-29T03:53:53.067Z,-0.62
2023-03-29T03:56:19.352Z,-0.67
2023-03-29T03:58:45.768Z,-0.67
2023-03-29T04:01:12.111Z,-0.71
2023-03-29T04:03:38.729Z,-0.69
2023-03-29T04:06:05.523Z,-0.63
2023-03-29T04:08:31.900Z,-0.64
2023-03-29T04:10:59.852Z,-0.69
2023-03-29T04:13:27.414Z,-0.69
2023-03-29T04:15:54.632Z,-0.60
2023-03-29T04:18:21.713Z,-0.56
2023-03-29T04:20:48.475Z,-0.56
2023-03-29T04:23:15.240Z,-0.60
2023-03-29T04:25:41.753Z,-0.61
2023-03-29T04:28:09.327Z,-0.58
2023-03-29T04:30:35.638Z,-0.55
2023-03-29T04:33:02.028Z,-0.58
2023-03-29T04:35:28.375Z,-0.54
2023-03-29T04:37:54.682Z,-0.57
2023-03-29T04:40:20.992Z,-0.56
2023-03-29T04:42:47.566Z,-0.52
2023-03-29T04:45:14.446Z,-0.51
2023-03-29T04:47:41.247Z,-0.47
2023-03-29T04:50:08.059Z,-0.43
2023-03-29T04:52:35.008Z,-0.44
2023-03-29T04:55:01.849Z,-0.39
2023-03-29T04:57:28.768Z,-0.37
2023-03-29T04:59:55.129Z,-0.35
2023-03-29T05:02:21.843Z,-0.30
2023-03-29T05:04:48.195Z,-0.28
2023-03-29T05:07:15.082Z,-0.30
2023-03-29T05:09:41.627Z,-0.28
2023-03-29T05:12:08.034Z,-0.27
2023-03-29T05:14:34.357Z,-0.25
2023-03-29T05:17:00.686Z,-0.24
2023-03-29T05:19:27.167Z,-0.26
2023-03-29T05:21:53.489Z,-0.22
2023-03-29T05:24:20.252Z,-0.16
2023-03-29T05:26:46.684Z,-0.09
2023-03-29T05:29:13.585Z,-0.08
2023-03-29T05:31:39.935Z,-0.05
2023-03-29T05:34:06.786Z,-0.03
2023-03-29T05:36:33.653Z,-0.02
2023-03-29T05:38:59.982Z,0.03
2023-03-29T05:41:26.318Z,0.08
2023-03-29T05:43:52.666Z,0.09
2023-03-29T05:46:19.029Z,0.14
2023-03-29T05:48:45.470Z,0.15
2023-03-29T05:51:11.763Z,0.17
2023-03-29T05:53:38.076Z,0.18
2023-03-29T05:56:04.686Z,0.25
2023-03-29T05:58:31.080Z,0.27
2023-03-29T06:00:57.431Z,0.31
2023-03-29T06:03:24.826Z,0.33
2023-03-29T06:06:01.729Z,0.36
2023-03-29T06:08:28.643Z,0.39
2023-03-29T06:11:05.097Z,0.42
2023-03-29T06:13:32.903Z,0.45
2023-03-29T06:15:59.471Z,0.55
2023-03-29T06:18:26.039Z,0.59
2023-03-29T06:20:53.578Z,0.67
2023-03-29T06:23:20.581Z,0.74
2023-03-29T06:25:47.379Z,0.81
2023-03-29T06:28:14.559Z,0.85
2023-03-29T06:30:41.716Z,0.94
2023-03-29T06:33:08.979Z,0.97
2023-03-29T06:35:36.796Z,1.05
2023-03-29T06:38:03.987Z,1.15
2023-03-29T06:40:30.485Z,1.25
2023-03-29T06:42:57.906Z,1.32
2023-03-29T06:45:26.303Z,1.43
2023-03-29T06:47:54.957Z,1.52
2023-03-29T06:50:21.423Z,1.61
2023-03-29T06:52:47.774Z,1.66
2023-03-29T06:55:14.090Z,1.74
2023-03-29T06:57:40.434Z,1.84
2023-03-29T07:00:07.537Z,1.91
2023-03-29T07:02:33.856Z,1.99
2023-03-29T07:05:00.152Z,2.13
2023-03-29T07:07:26.449Z,2.17
2023-03-29T07:09:52.753Z,2.31
2023-03-29T07:12:20.623Z,2.36
2023-03-29T07:14:46.943Z,2.45
2023-03-29T07:17:13.266Z,2.51
2023-03-29T07:19:39.569Z,2.58
2023-03-29T07:22:05.929Z,2.65
2023-03-29T07:24:32.256Z,2.74
2023-03-29T07:27:03.752Z,2.79
2023-03-29T07:29:31.624Z,2.85
2023-03-29T07:31:57.997Z,2.95
2023-03-29T07:34:24.390Z,3.05
2023-03-29T07:36:50.768Z,3.16
2023-03-29T07:39:17.088Z,3.25
2023-03-29T07:41:43.419Z,3.31
2023-03-29T07:44:09.729Z,3.41
2023-03-29T07:46:36.766Z,3.50
2023-03-29T07:49:03.978Z,3.59
2023-03-29T07:51:30.288Z,3.77
2023-03-29T07:53:56.574Z,3.78
2023-03-29T07:56:23.014Z,3.82
2023-03-29T07:58:49.319Z,3.83
2023-03-29T08:01:18.701Z,3.82
2023-03-29T08:03:45.854Z,3.82
2023-03-29T08:06:12.244Z,3.85
2023-03-29T08:08:38.575Z,3.91
2023-03-29T08:11:05.003Z,4.11
2023-03-29T08:13:31.331Z,4.29
2023-03-29T08:15:57.665Z,4.47
2023-03-29T08:18:24.024Z,4.71
2023-03-29T08:20:50.514Z,5.01
2023-03-29T08:23:16.871Z,5.31
2023-03-29T08:25:44.910Z,5.48
2023-03-29T08:28:11.191Z,5.72
2023-03-29T08:30:37.551Z,5.78
2023-03-29T08:33:03.959Z,5.94
2023-03-29T08:35:30.337Z,6.06
2023-03-29T08:37:56.652Z,6.25
2023-03-29T08:40:26.227Z,6.22
2023-03-29T08:43:02.494Z,6.31
2023-03-29T08:45:39.113Z,6.13
2023-03-29T08:48:05.396Z,6.28
2023-03-29T08:50:43.642Z,6.41
2023-03-29T08:53:24.073Z,6.43
2023-03-29T08:55:52.914Z,6.51
2023-03-29T08:58:25.157Z,6.76
2023-03-29T09:00:55.060Z,6.92
2023-03-29T09:03:24.105Z,6.87
2023-03-29T09:06:05.825Z,6.87
2023-03-29T09:08:37.185Z,6.85
2023-03-29T09:11:25.010Z,6.97
2023-03-29T09:14:06.545Z,7.24
2023-03-29T09:16:44.923Z,7.28
2023-03-29T09:19:23.247Z,7.42
2023-03-29T09:22:03.573Z,7.66
2023-03-29T09:24:42.050Z,8.03
2023-03-29T09:27:14.583Z,8.22
2023-03-29T09:29:49.261Z,8.47
2023-03-29T09:32:34.495Z,8.75
2023-03-29T09:35:15.727Z,8.60
2023-03-29T09:37:42.185Z,8.61
2023-03-29T09:40:16.108Z,8.51
2023-03-29T09:42:44.259Z,8.47
2023-03-29T09:45:10.958Z,8.50
2023-03-29T09:47:48.498Z,8.51
2023-03-29T09:50:30.796Z,8.59
2023-03-29T09:52:57.599Z,8.69
2023-03-29T09:55:29.085Z,8.80
2023-03-29T09:58:00.545Z,8.89
2023-03-29T10:00:26.891Z,9.17
2023-03-29T10:02:56.170Z,9.38
2023-03-29T10:05:24.936Z,9.59
2023-03-29T10:07:54.249Z,9.67
2023-03-29T10:10:27.980Z,9.62
2023-03-29T10:12:59.822Z,9.79
2023-03-29T10:15:30.669Z,9.97
2023-03-29T10:18:08.148Z,9.91
2023-03-29T10:20:36.568Z,9.90
2023-03-29T10:23:06.901Z,9.90
2023-03-29T10:25:37.053Z,10.26
2023-03-29T10:28:16.232Z,10.40
2023-03-29T10:30:44.279Z,10.08
2023-03-29T10:33:20.149Z,10.11
2023-03-29T10:35:48.151Z,10.22
2023-03-29T10:38:18.281Z,10.59
2023-03-29T10:40:50.599Z,10.60
2023-03-29T10:43:16.844Z,10.46
2023-03-29T10:45:44.302Z,10.30
2023-03-29T10:48:15.540Z,10.26
2023-03-29T10:50:42.471Z,10.46
2023-03-29T10:53:25.974Z,10.08
2023-03-29T10:56:10.328Z,10.15
2023-03-29T10:58:43.725Z,10.32
2023-03-29T11:01:24.676Z,10.40
2023-03-29T11:04:29.978Z,10.58
2023-03-29T11:07:20.070Z,10.94
2023-03-29T11:09:59.214Z,11.36
2023-03-29T11:12:25.373Z,11.37
2023-03-29T11:15:12.887Z,11.07
2023-03-29T11:17:57.721Z,10.99
2023-03-29T11:20:48.665Z,10.88
2023-03-29T11:23:21.171Z,10.56
2023-03-29T11:25:59.513Z,10.23
2023-03-29T11:28:53.808Z,10.08
2023-03-29T11:31:23.041Z,10.15
2023-03-29T11:33:53.651Z,10.27
2023-03-29T11:36:39.137Z,10.24
2023-03-29T11:39:21.542Z,10.23
2023-03-29T11:41:57.960Z,10.19
2023-03-29T11:44:29.515Z,10.26
2023-03-29T11:47:01.946Z,10.18
2023-03-29T11:49:52.607Z,9.95
2023-03-29T11:52:24.695Z,10.15
2023-03-29T11:54:50.941Z,10.38
2023-03-29T11:57:26.161Z,10.40
2023-03-29T12:00:13.222Z,10.43
2023-03-29T12:02:56.051Z,10.56
2023-03-29T12:05:30.214Z,10.55
2023-03-29T12:08:20.487Z,10.59
2023-03-29T12:11:29.254Z,10.73
2023-03-29T12:14:19.245Z,10.85
2023-03-29T12:17:00.877Z,10.71
2023-03-29T12:19:30.208Z,10.69
2023-03-29T12:21:58.748Z,10.69
2023-03-29T12:24:29.518Z,10.65
2023-03-29T12:27:04.618Z,10.95
2023-03-29T12:29:49.036Z,10.93
2023-03-29T12:32:37.134Z,11.08
2023-03-29T12:35:22.410Z,10.91
2023-03-29T12:37:54.744Z,10.89
2023-03-29T12:40:25.443Z,10.88
2023-03-29T12:42:54.233Z,10.80
2023-03-29T12:45:33.040Z,10.92
2023-03-29T12:47:59.927Z,10.76
2023-03-29T12:50:32.932Z,10.64
2023-03-29T12:53:17.096Z,10.67
2023-03-29T12:55:43.568Z,10.78
2023-03-29T12:58:25.465Z,10.89
2023-03-29T13:01:07.270Z,10.87
2023-03-29T13:03:39.553Z,10.85
2023-03-29T13:06:11.341Z,10.82
2023-03-29T13:08:43.257Z,10.92
2023-03-29T13:11:26.629Z,11.14
2023-03-29T13:13:53.321Z,11.20
2023-03-29T13:16:29.040Z,11.16
2023-03-29T13:19:05.097Z,10.99
2023-03-29T13:21:53.163Z,10.89
2023-03-29T13:24:29.759Z,10.75
2023-03-29T13:27:14.964Z,10.68
2023-03-29T13:29:44.250Z,10.66
2023-03-29T13:32:57.226Z,10.66
2023-03-29T13:36:14.226Z,10.53
2023-03-29T13:38:46.503Z,10.68
2023-03-29T13:41:33.363Z,10.63
2023-03-29T13:44:00.136Z,10.61
2023-03-29T13:46:43.507Z,10.71
2023-03-29T13:49:23.352Z,10.69
2023-03-29T13:52:34.632Z,10.68
2023-03-29T13:55:15.578Z,10.57
2023-03-29T13:58:12.655Z,10.44
2023-03-29T14:00:45.266Z,10.46
2023-03-29T14:03:17.280Z,10.34
2023-03-29T14:06:01.092Z,10.42
2023-03-29T14:08:29.976Z,10.48
2023-03-29T14:11:00.725Z,10.46
2023-03-29T14:13:28.730Z,10.43
2023-03-29T14:16:15.367Z,10.44
2023-03-29T14:18:42.541Z,10.32
2023-03-29T14:21:12.224Z,10.24
2023-03-29T14:23:38.594Z,10.24
2023-03-29T14:26:09.077Z,10.18
2023-03-29T14:28:35.376Z,10.19
2023-03-29T14:31:01.805Z,10.12
2023-03-29T14:33:29.291Z,10.06
2023-03-29T14:35:58.111Z,10.09
2023-03-29T14:38:25.705Z,10.17
2023-03-29T14:40:52.278Z,10.19
2023-03-29T14:43:20.818Z,10.15
2023-03-29T14:45:48.006Z,10.05
2023-03-29T14:48:14.949Z,10.07
2023-03-29T14:50:42.332Z,10.02
2023-03-29T14:53:22.684Z,10.05
2023-03-29T14:55:51.331Z,10.11
2023-03-29T14:58:35.871Z,10.12
2023-03-29T15:01:07.437Z,10.12
2023-03-29T15:03:55.106Z,10.06
2023-03-29T15:06:24.102Z,9.90
2023-03-29T15:08:57.974Z,9.87
2023-03-29T15:11:31.224Z,9.93
2023-03-29T15:14:25.175Z,9.90
2023-03-29T15:16:55.474Z,9.97
2023-03-29T15:19:25.184Z,9.96
2023-03-29T15:21:51.948Z,9.93
2023-03-29T15:24:27.613Z,9.87
2023-03-29T15:27:03.752Z,9.85
2023-03-29T15:29:36.041Z,9.84
2023-03-29T15:32:02.786Z,9.76
2023-03-29T15:34:30.856Z,9.74
2023-03-29T15:36:57.745Z,9.72
2023-03-29T15:39:24.931Z,9.75
2023-03-29T15:41:52.640Z,9.76
2023-03-29T15:44:27.312Z,9.83
2023-03-29T15:46:54.223Z,9.83
2023-03-29T15:49:21.179Z,9.88
2023-03-29T15:51:47.485Z,9.92
2023-03-29T15:54:13.824Z,9.93
2023-03-29T15:57:08.530Z,9.84
2023-03-29T15:59:35.139Z,9.82
2023-03-29T16:02:01.583Z,9.83
2023-03-29T16:04:27.987Z,9.86
2023-03-29T16:06:55.355Z,9.78
2023-03-29T16:09:22.562Z,9.75
2023-03-29T16:11:49.537Z,9.76
2023-03-29T16:14:24.380Z,9.80
2023-03-29T16:16:52.130Z,9.76
2023-03-29T16:19:19.506Z,9.78
2023-03-29T16:21:45.954Z,9.77
2023-03-29T16:24:18.431Z,9.75
2023-03-29T16:26:45.299Z,9.69
2023-03-29T16:29:12.141Z,9.66
2023-03-29T16:31:38.956Z,9.68
2023-03-29T16:34:05.633Z,9.67
2023-03-29T16:36:32.015Z,9.61
2023-03-29T16:38:58.488Z,9.60
2023-03-29T16:41:24.911Z,9.62
2023-03-29T16:43:51.244Z,9.61
2023-03-29T16:51:56.958Z,9.60
2023-03-29T16:54:23.273Z,9.54
2023-03-29T16:56:49.608Z,9.53
2023-03-29T16:59:15.903Z,9.55
2023-03-29T17:01:42.458Z,9.51
2023-03-29T17:04:09.091Z,9.49
2023-03-29T17:06:35.529Z,9.46
2023-03-29T17:09:01.847Z,9.46
2023-03-29T17:11:28.592Z,9.42
2023-03-29T17:14:00.395Z,9.43
2023-03-29T17:16:29.585Z,9.36
2023-03-29T17:18:59.879Z,9.32
2023-03-29T17:21:26.248Z,9.28
2023-03-29T17:23:52.629Z,9.25
2023-03-29T17:26:18.953Z,9.22
2023-03-29T17:28:45.264Z,9.22
2023-03-29T17:31:11.731Z,9.20
2023-03-29T17:33:40.089Z,9.20
2023-03-29T17:36:07.385Z,9.21
2023-03-29T17:38:34.354Z,9.15
2023-03-29T17:41:01.074Z,9.14
2023-03-29T17:43:30.502Z,9.12
2023-03-29T17:45:56.788Z,9.14
2023-03-29T17:48:24.034Z,9.07
2023-03-29T17:50:50.540Z,9.06
2023-03-29T17:53:16.915Z,9.06
2023-03-29T17:55:43.258Z,9.05
2023-03-29T17:58:09.558Z,9.03
2023-03-29T18:00:35.937Z,9.00
2023-03-29T18:03:02.322Z,8.94
2023-03-29T18:05:28.715Z,8.92
2023-03-29T18:07:55.181Z,8.90
2023-03-29T18:10:21.652Z,8.87
2023-03-29T18:12:48.028Z,8.89
2023-03-29T18:15:14.350Z,8.80
2023-03-29T18:17:40.717Z,8.78
2023-03-29T18:20:07.749Z,8.78
2023-03-29T18:22:34.040Z,8.75
2023-03-29T18:25:00.330Z,8.73
2023-03-29T18:27:26.624Z,8.69
2023-03-29T18:29:52.983Z,8.66
2023-03-29T18:32:19.467Z,8.63
2023-03-29T18:34:45.883Z,8.60
2023-03-29T18:37:12.179Z,8.58
2023-03-29T18:39:38.459Z,8.58
2023-03-29T18:42:04.838Z,8.57
2023-03-29T18:44:31.177Z,8.55
2023-03-29T18:46:57.476Z,8.50
2023-03-29T18:49:24.402Z,8.48
2023-03-29T18:51:50.702Z,8.48
2023-03-29T18:54:17.593Z,8.46
2023-03-29T18:56:44.000Z,8.43
2023-03-29T18:59:10.334Z,8.48
2023-03-29T19:01:36.771Z,8.44
2023-03-29T19:04:03.310Z,8.47
2023-03-29T19:06:29.782Z,8.47
2023-03-29T19:08:56.084Z,8.44
2023-03-29T19:11:22.408Z,8.45
2023-03-29T19:13:48.715Z,8.43
2023-03-29T19:16:15.061Z,8.43
2023-03-29T19:18:41.501Z,8.42
2023-03-29T19:21:07.960Z,8.41
2023-03-29T19:23:34.331Z,8.34
2023-03-29T19:26:02.950Z,8.36
2023-03-29T19:28:29.780Z,8.35
2023-03-29T19:30:58.742Z,8.35
2023-03-29T19:33:25.118Z,8.34
2023-03-29T19:35:51.571Z,8.34
2023-03-29T19:38:20.997Z,8.31
2023-03-29T19:40:49.025Z,8.32
2023-03-29T19:43:15.709Z,8.29
2023-03-29T19:45:47.370Z,8.30
2023-03-29T19:48:21.938Z,8.30
2023-03-29T19:50:49.168Z,8.30
2023-03-29T19:53:15.484Z,8.30
2023-03-29T19:55:42.379Z,8.30
2023-03-29T19:58:08.856Z,8.29
2023-03-29T20:00:35.293Z,8.29
2023-03-29T20:03:01.693Z,8.28
2023-03-29T20:05:28.148Z,8.26
2023-03-29T20:07:54.476Z,8.24
2023-03-29T20:10:20.823Z,8.22
2023-03-29T20:12:47.101Z,8.20
2023-03-29T20:15:13.486Z,8.19
2023-03-29T20:17:39.802Z,8.20
2023-03-29T20:20:10.360Z,8.16
2023-03-29T20:22:38.026Z,8.14
2023-03-29T20:25:05.122Z,8.13
2023-03-29T20:27:31.418Z,8.15
2023-03-29T20:29:57.693Z,8.12
2023-03-29T20:32:24.059Z,8.11
2023-03-29T20:34:50.379Z,8.10
2023-03-29T20:37:16.683Z,8.08
2023-03-29T20:39:42.951Z,8.08
2023-03-29T20:42:09.274Z,8.07
2023-03-29T20:44:35.569Z,8.07
2023-03-29T20:47:01.892Z,8.04
2023-03-29T20:49:30.247Z,8.04
2023-03-29T20:51:56.541Z,8.05
2023-03-29T20:54:22.833Z,8.01
2023-03-29T20:56:49.236Z,7.99
2023-03-29T20:59:15.526Z,7.97
2023-03-29T21:01:41.840Z,7.96
2023-03-29T21:04:08.709Z,7.98
2023-03-29T21:06:35.998Z,7.96
2023-03-29T21:09:02.309Z,7.96
2023-03-29T21:11:28.638Z,7.98
2023-03-29T21:13:54.908Z,7.98
2023-03-29T21:16:21.256Z,7.98
2023-03-29T21:18:47.560Z,7.96
2023-03-29T21:21:13.867Z,7.94
2023-03-29T21:23:40.141Z,7.96
2023-03-29T21:26:06.474Z,7.94
2023-03-29T21:28:33.452Z,7.93
2023-03-29T21:31:04.036Z,7.93
2023-03-29T21:33:30.541Z,7.93
2023-03-29T21:35:57.062Z,7.93
2023-03-29T21:38:23.622Z,7.92
2023-03-29T21:40:55.595Z,7.94
2023-03-29T21:43:22.208Z,7.92
2023-03-29T21:45:49.778Z,7.92
2023-03-29T21:48:17.175Z,7.92
2023-03-29T21:50:43.526Z,7.93
2023-03-29T21:53:10.191Z,7.91
2023-03-29T21:55:36.490Z,7.90
2023-03-29T21:58:04.017Z,7.88
2023-03-29T22:00:31.123Z,7.87
2023-03-29T22:02:57.503Z,7.87
2023-03-29T22:05:23.861Z,7.86
2023-03-29T22:07:50.155Z,7.85
2023-03-29T22:10:16.970Z,7.84
2023-03-29T22:12:43.275Z,7.80
2023-03-29T22:15:10.577Z,7.81
2023-03-29T22:17:36.909Z,7.81
2023-03-29T22:20:04.070Z,7.82
2023-03-29T22:22:30.408Z,7.82
2023-03-29T22:24:56.711Z,7.84
2023-03-29T22:27:23.152Z,7.82
2023-03-29T22:29:49.473Z,7.81
2023-03-29T22:32:15.943Z,7.81
2023-03-29T22:34:42.430Z,7.78
2023-03-29T22:37:08.731Z,7.77
2023-03-29T22:39:35.604Z,7.77
2023-03-29T22:42:02.111Z,7.74
2023-03-29T22:44:28.534Z,7.76
2023-03-29T22:46:54.843Z,7.76
2023-03-29T22:49:21.411Z,7.75
2023-03-29T22:51:47.749Z,7.73
2023-03-29T22:54:14.091Z,7.75
2023-03-29T22:56:42.267Z,7.78
2023-03-29T22:59:08.818Z,7.73
2023-03-29T23:01:35.226Z,7.72
2023-03-29T23:04:01.704Z,7.75
2023-03-29T23:06:28.066Z,7.79
2023-03-29T23:08:54.393Z,7.77
2023-03-29T23:11:20.820Z,7.75
2023-03-29T23:13:47.124Z,7.78
2023-03-29T23:16:13.469Z,7.75
2023-03-29T23:18:39.808Z,7.78
2023-03-29T23:21:06.785Z,7.78
2023-03-29T23:23:33.354Z,7.77
2023-03-29T23:25:59.862Z,7.78
2023-03-29T23:28:27.746Z,7.78
2023-03-29T23:31:10.696Z,7.74
2023-03-29T23:33:41.759Z,7.75
2023-03-29T23:36:11.387Z,7.75
2023-03-29T23:38:38.878Z,7.73
2023-03-29T23:41:08.031Z,7.73
2023-03-29T23:43:36.419Z,7.70
2023-03-29T23:46:05.340Z,7.65
2023-03-29T23:48:32.012Z,7.61
2023-03-29T23:50:58.348Z,7.60
2023-03-29T23:53:26.159Z,7.55
2023-03-29T23:55:55.859Z,7.54
2023-03-29T23:58:24.945Z,7.54
